Archival Weather

Chicago O'Hare International

Chicago, Illinois (KORD)

Report from: Wednesday, March 27, 2024 5:51 AM CDT
Current time: Tuesday, May 21, 2024 12:49 PM CDT

Current weather – Weather history – Daily summaries
Weather forecast

Temperature-1.7°C (28.9°F)
Wind chill-8.2°C (17.3°F)
Dew point-6.7°C (19.9°F)
Winds 14 kts (7.2 m/s, 16.1 mph) West (270°)
Wind gusts 22 kts (11.3 m/s, 25.3 mph)
Peak wind 27 kts (13.9 m/s, 31.1 mph) West (270°) at 10:17
Visibility10 mi. (16.1 km)
Clouds Ceiling: Overcast 2,200 ft. (671 m)
Altimeter29.92 in.Hg (1013 mB)
Relative humidity69 %
Density altitude-2,004 ft. (-611 m)
Sea-level pressure101.4 kPa (1014 mB, 29.93 in.Hg)
Remarks System requires maintenance
Automated weather observing station with precipitation discriminator
Flight conditions Marginal Visual Meteorological Conditions
Raw dataKORD 271051Z 27014G22KT 10SM OVC022 M02/M07 A2992 RMK AO2 PK WND 27027/1017 SLP137 T10171067 $
An error has occurred. This application may no longer respond until reloaded. Reload 🗙